sensor_id;sensor_type;location;lat;lon;timestamp;pressure;altitude;pressure_sealevel;temperature;humidity
49311;BME280;35177;45.900;5.946;2023-07-13T00:00:24;97690.94;;;19.27;72.33
49311;BME280;35177;45.900;5.946;2023-07-13T00:02:50;97692.38;;;19.22;72.11
49311;BME280;35177;45.900;5.946;2023-07-13T00:05:22;97690.25;;;19.25;71.70
49311;BME280;35177;45.900;5.946;2023-07-13T00:07:49;97688.38;;;19.26;71.95
49311;BME280;35177;45.900;5.946;2023-07-13T00:10:14;97695.84;;;19.32;72.27
49311;BME280;35177;45.900;5.946;2023-07-13T00:12:40;97689.34;;;19.52;71.12
49311;BME280;35177;45.900;5.946;2023-07-13T00:15:12;97689.69;;;19.75;70.54
49311;BME280;35177;45.900;5.946;2023-07-13T00:17:39;97684.97;;;19.94;69.62
49311;BME280;35177;45.900;5.946;2023-07-13T00:20:05;97677.69;;;20.04;69.22
49311;BME280;35177;45.900;5.946;2023-07-13T00:22:32;97682.88;;;20.06;69.30
49311;BME280;35177;45.900;5.946;2023-07-13T00:24:57;97684.97;;;20.20;68.99
49311;BME280;35177;45.900;5.946;2023-07-13T00:27:23;97678.19;;;20.26;68.71
49311;BME280;35177;45.900;5.946;2023-07-13T00:29:52;97671.28;;;20.23;68.67
49311;BME280;35177;45.900;5.946;2023-07-13T00:32:18;97681.44;;;20.20;69.22
49311;BME280;35177;45.900;5.946;2023-07-13T00:34:44;97669.84;;;20.19;69.10
49311;BME280;35177;45.900;5.946;2023-07-13T00:37:09;97677.84;;;20.29;68.78
49311;BME280;35177;45.900;5.946;2023-07-13T00:39:35;97677.53;;;20.32;68.50
49311;BME280;35177;45.900;5.946;2023-07-13T00:42:02;97666.25;;;20.28;68.75
49311;BME280;35177;45.900;5.946;2023-07-13T00:44:28;97673.09;;;20.23;69.21
49311;BME280;35177;45.900;5.946;2023-07-13T00:46:53;97673.00;;;20.32;68.28
49311;BME280;35177;45.900;5.946;2023-07-13T00:49:22;97678.19;;;20.26;68.91
49311;BME280;35177;45.900;5.946;2023-07-13T00:51:52;97686.66;;;20.21;69.31
49311;BME280;35177;45.900;5.946;2023-07-13T00:54:23;97677.47;;;20.24;69.29
49311;BME280;35177;45.900;5.946;2023-07-13T00:56:51;97679.84;;;20.27;68.86
49311;BME280;35177;45.900;5.946;2023-07-13T00:59:18;97671.16;;;20.33;69.01
49311;BME280;35177;45.900;5.946;2023-07-13T01:01:45;97678.56;;;20.13;70.24
49311;BME280;35177;45.900;5.946;2023-07-13T01:04:11;97671.28;;;20.05;70.07
49311;BME280;35177;45.900;5.946;2023-07-13T01:06:39;97675.84;;;19.62;72.49
49311;BME280;35177;45.900;5.946;2023-07-13T01:09:06;97685.53;;;19.10;74.61
49311;BME280;35177;45.900;5.946;2023-07-13T01:11:33;97684.16;;;19.06;75.44
49311;BME280;35177;45.900;5.946;2023-07-13T01:13:58;97680.72;;;19.31;74.36
49311;BME280;35177;45.900;5.946;2023-07-13T01:16:26;97675.69;;;19.28;75.17
49311;BME280;35177;45.900;5.946;2023-07-13T01:18:53;97686.09;;;19.31;74.55
49311;BME280;35177;45.900;5.946;2023-07-13T01:21:19;97691.78;;;19.28;75.97
49311;BME280;35177;45.900;5.946;2023-07-13T01:23:45;97691.44;;;19.31;76.68
49311;BME280;35177;45.900;5.946;2023-07-13T01:26:10;97698.22;;;19.35;75.95
49311;BME280;35177;45.900;5.946;2023-07-13T01:28:37;97694.56;;;19.36;76.47
49311;BME280;35177;45.900;5.946;2023-07-13T01:31:03;97696.41;;;19.35;76.74
49311;BME280;35177;45.900;5.946;2023-07-13T01:33:29;97703.97;;;19.40;75.25
49311;BME280;35177;45.900;5.946;2023-07-13T01:35:54;97697.25;;;19.54;74.63
49311;BME280;35177;45.900;5.946;2023-07-13T01:38:23;97701.16;;;19.59;75.21
49311;BME280;35177;45.900;5.946;2023-07-13T01:40:53;97698.81;;;19.82;73.36
49311;BME280;35177;45.900;5.946;2023-07-13T01:43:19;97696.25;;;19.98;70.91
49311;BME280;35177;45.900;5.946;2023-07-13T01:45:44;97701.88;;;20.13;70.81
49311;BME280;35177;45.900;5.946;2023-07-13T01:48:11;97703.41;;;20.15;71.07
49311;BME280;35177;45.900;5.946;2023-07-13T01:50:37;97688.31;;;20.14;70.48
49311;BME280;35177;45.900;5.946;2023-07-13T01:53:02;97696.09;;;19.99;72.99
49311;BME280;35177;45.900;5.946;2023-07-13T01:55:28;97700.19;;;19.33;76.46
49311;BME280;35177;45.900;5.946;2023-07-13T01:57:54;97692.75;;;19.09;76.55
49311;BME280;35177;45.900;5.946;2023-07-13T02:00:20;97699.09;;;19.08;76.28
49311;BME280;35177;45.900;5.946;2023-07-13T02:02:45;97701.03;;;19.33;75.54
49311;BME280;35177;45.900;5.946;2023-07-13T02:05:11;97696.41;;;19.53;73.94
49311;BME280;35177;45.900;5.946;2023-07-13T02:07:38;97697.16;;;19.63;73.44
49311;BME280;35177;45.900;5.946;2023-07-13T02:10:05;97695.81;;;19.85;71.33
49311;BME280;35177;45.900;5.946;2023-07-13T02:12:30;97692.25;;;20.02;69.50
49311;BME280;35177;45.900;5.946;2023-07-13T02:14:56;97689.66;;;19.92;71.34
49311;BME280;35177;45.900;5.946;2023-07-13T02:17:21;97687.84;;;19.75;72.77
49311;BME280;35177;45.900;5.946;2023-07-13T02:19:47;97694.31;;;19.65;73.28
49311;BME280;35177;45.900;5.946;2023-07-13T02:22:12;97695.59;;;19.78;70.96
49311;BME280;35177;45.900;5.946;2023-07-13T02:24:38;97690.66;;;19.91;72.15
49311;BME280;35177;45.900;5.946;2023-07-13T02:27:04;97686.09;;;19.66;73.38
49311;BME280;35177;45.900;5.946;2023-07-13T02:29:29;97678.56;;;19.87;70.05
49311;BME280;35177;45.900;5.946;2023-07-13T02:31:55;97683.72;;;19.81;72.21
49311;BME280;35177;45.900;5.946;2023-07-13T02:34:20;97687.84;;;19.75;73.19
49311;BME280;35177;45.900;5.946;2023-07-13T02:36:46;97683.25;;;19.85;71.16
49311;BME280;35177;45.900;5.946;2023-07-13T02:39:12;97685.50;;;19.98;69.93
49311;BME280;35177;45.900;5.946;2023-07-13T02:41:38;97688.31;;;19.88;72.20
49311;BME280;35177;45.900;5.946;2023-07-13T02:44:04;97690.63;;;19.83;72.67
49311;BME280;35177;45.900;5.946;2023-07-13T02:46:34;97682.47;;;19.75;73.67
49311;BME280;35177;45.900;5.946;2023-07-13T02:49:00;97684.34;;;19.57;75.30
49311;BME280;35177;45.900;5.946;2023-07-13T02:51:26;97684.72;;;19.45;75.33
49311;BME280;35177;45.900;5.946;2023-07-13T02:53:52;97680.31;;;19.53;76.16
49311;BME280;35177;45.900;5.946;2023-07-13T02:56:21;97676.56;;;19.46;76.55
49311;BME280;35177;45.900;5.946;2023-07-13T02:58:47;97680.53;;;19.42;75.91
49311;BME280;35177;45.900;5.946;2023-07-13T03:01:13;97683.75;;;19.46;78.47
49311;BME280;35177;45.900;5.946;2023-07-13T03:03:38;97681.34;;;19.25;79.59
49311;BME280;35177;45.900;5.946;2023-07-13T03:06:04;97683.94;;;19.17;80.03
49311;BME280;35177;45.900;5.946;2023-07-13T03:08:31;97677.31;;;18.94;80.83
49311;BME280;35177;45.900;5.946;2023-07-13T03:11:07;97683.19;;;18.80;83.86
49311;BME280;35177;45.900;5.946;2023-07-13T03:13:33;97679.53;;;18.81;83.27
49311;BME280;35177;45.900;5.946;2023-07-13T03:15:59;97685.78;;;18.71;82.45
49311;BME280;35177;45.900;5.946;2023-07-13T03:18:26;97695.44;;;18.64;83.43
49311;BME280;35177;45.900;5.946;2023-07-13T03:20:52;97697.81;;;18.67;84.15
49311;BME280;35177;45.900;5.946;2023-07-13T03:23:19;97700.34;;;18.69;83.75
49311;BME280;35177;45.900;5.946;2023-07-13T03:25:44;97710.09;;;18.70;84.09
49311;BME280;35177;45.900;5.946;2023-07-13T03:28:11;97708.22;;;18.70;84.44
49311;BME280;35177;45.900;5.946;2023-07-13T03:30:36;97709.91;;;18.71;86.31
49311;BME280;35177;45.900;5.946;2023-07-13T03:33:02;97711.66;;;18.63;85.91
49311;BME280;35177;45.900;5.946;2023-07-13T03:35:28;97706.84;;;18.66;86.22
49311;BME280;35177;45.900;5.946;2023-07-13T03:37:53;97706.22;;;18.72;85.63
49311;BME280;35177;45.900;5.946;2023-07-13T03:40:20;97711.34;;;18.66;86.84
49311;BME280;35177;45.900;5.946;2023-07-13T03:42:46;97727.69;;;18.72;87.03
49311;BME280;35177;45.900;5.946;2023-07-13T03:45:12;97723.72;;;18.77;86.73
49311;BME280;35177;45.900;5.946;2023-07-13T03:47:37;97724.03;;;18.73;87.46
49311;BME280;35177;45.900;5.946;2023-07-13T03:50:03;97726.28;;;18.68;87.20
49311;BME280;35177;45.900;5.946;2023-07-13T03:52:29;97730.03;;;18.58;87.86
49311;BME280;35177;45.900;5.946;2023-07-13T03:54:54;97737.25;;;18.48;88.58
49311;BME280;35177;45.900;5.946;2023-07-13T03:57:20;97735.22;;;18.59;87.70
49311;BME280;35177;45.900;5.946;2023-07-13T03:59:46;97739.31;;;18.54;88.54
49311;BME280;35177;45.900;5.946;2023-07-13T04:02:11;97739.91;;;18.57;88.41
49311;BME280;35177;45.900;5.946;2023-07-13T04:04:37;97755.00;;;18.58;88.20
49311;BME280;35177;45.900;5.946;2023-07-13T04:07:05;97742.75;;;18.46;88.51
49311;BME280;35177;45.900;5.946;2023-07-13T04:09:30;97751.34;;;18.40;88.24
49311;BME280;35177;45.900;5.946;2023-07-13T04:11:56;97746.41;;;18.45;87.76
49311;BME280;35177;45.900;5.946;2023-07-13T04:14:21;97753.59;;;18.35;88.50
49311;BME280;35177;45.900;5.946;2023-07-13T04:16:47;97759.09;;;18.53;86.64
49311;BME280;35177;45.900;5.946;2023-07-13T04:19:13;97758.84;;;18.46;85.53
49311;BME280;35177;45.900;5.946;2023-07-13T04:21:38;97763.34;;;18.36;88.11
49311;BME280;35177;45.900;5.946;2023-07-13T04:24:04;97768.69;;;18.36;88.36
49311;BME280;35177;45.900;5.946;2023-07-13T04:26:30;97773.78;;;18.39;89.10
49311;BME280;35177;45.900;5.946;2023-07-13T04:28:57;97781.94;;;18.38;89.50
49311;BME280;35177;45.900;5.946;2023-07-13T04:31:23;97784.19;;;18.42;89.00
49311;BME280;35177;45.900;5.946;2023-07-13T04:33:49;97790.13;;;18.36;87.15
49311;BME280;35177;45.900;5.946;2023-07-13T04:36:15;97794.97;;;18.23;83.71
49311;BME280;35177;45.900;5.946;2023-07-13T04:38:41;97798.81;;;17.92;82.10
49311;BME280;35177;45.900;5.946;2023-07-13T04:41:08;97801.47;;;17.73;81.00
49311;BME280;35177;45.900;5.946;2023-07-13T04:43:34;97818.94;;;17.58;81.25
49311;BME280;35177;45.900;5.946;2023-07-13T04:46:08;97812.56;;;17.40;80.97
49311;BME280;35177;45.900;5.946;2023-07-13T04:48:34;97816.91;;;17.41;79.82
49311;BME280;35177;45.900;5.946;2023-07-13T04:51:00;97814.22;;;17.31;80.90
49311;BME280;35177;45.900;5.946;2023-07-13T04:53:28;97815.06;;;17.31;79.77
49311;BME280;35177;45.900;5.946;2023-07-13T04:55:53;97816.34;;;17.37;80.45
49311;BME280;35177;45.900;5.946;2023-07-13T04:58:19;97815.88;;;17.22;80.83
49311;BME280;35177;45.900;5.946;2023-07-13T05:00:44;97813.22;;;17.22;82.12
49311;BME280;35177;45.900;5.946;2023-07-13T05:03:10;97820.13;;;17.25;81.75
49311;BME280;35177;45.900;5.946;2023-07-13T05:05:35;97817.25;;;17.17;81.18
49311;BME280;35177;45.900;5.946;2023-07-13T05:08:01;97814.06;;;17.23;82.23
49311;BME280;35177;45.900;5.946;2023-07-13T05:10:27;97819.16;;;17.26;80.89
49311;BME280;35177;45.900;5.946;2023-07-13T05:12:53;97818.84;;;17.29;81.68
49311;BME280;35177;45.900;5.946;2023-07-13T05:15:21;97825.06;;;17.29;82.38
49311;BME280;35177;45.900;5.946;2023-07-13T05:17:48;97828.88;;;17.36;82.96
49311;BME280;35177;45.900;5.946;2023-07-13T05:20:14;97829.16;;;17.43;85.04
49311;BME280;35177;45.900;5.946;2023-07-13T05:22:40;97830.03;;;17.04;86.89
49311;BME280;35177;45.900;5.946;2023-07-13T05:25:06;97835.16;;;17.16;86.82
49311;BME280;35177;45.900;5.946;2023-07-13T05:27:33;97838.59;;;17.38;86.56
49311;BME280;35177;45.900;5.946;2023-07-13T05:29:59;97841.06;;;17.60;85.39
49311;BME280;35177;45.900;5.946;2023-07-13T05:32:24;97845.56;;;17.69;85.52
49311;BME280;35177;45.900;5.946;2023-07-13T05:34:50;97846.84;;;17.65;84.81
49311;BME280;35177;45.900;5.946;2023-07-13T05:37:15;97845.56;;;17.69;85.40
49311;BME280;35177;45.900;5.946;2023-07-13T05:39:40;97847.97;;;17.72;84.70
49311;BME280;35177;45.900;5.946;2023-07-13T05:42:06;97844.47;;;17.81;84.74
49311;BME280;35177;45.900;5.946;2023-07-13T05:44:32;97848.00;;;17.81;84.69
49311;BME280;35177;45.900;5.946;2023-07-13T05:46:57;97846.03;;;17.93;82.33
49311;BME280;35177;45.900;5.946;2023-07-13T05:49:23;97856.16;;;17.99;83.17
49311;BME280;35177;45.900;5.946;2023-07-13T05:51:48;97854.75;;;18.04;82.41
49311;BME280;35177;45.900;5.946;2023-07-13T05:54:14;97864.63;;;18.04;82.70
49311;BME280;35177;45.900;5.946;2023-07-13T05:56:40;97862.06;;;18.22;81.56
49311;BME280;35177;45.900;5.946;2023-07-13T05:59:05;97855.31;;;18.27;81.46
49311;BME280;35177;45.900;5.946;2023-07-13T06:01:31;97862.63;;;18.44;81.09
49311;BME280;35177;45.900;5.946;2023-07-13T06:03:57;97867.44;;;18.50;81.04
49311;BME280;35177;45.900;5.946;2023-07-13T06:06:22;97873.31;;;18.63;80.88
49311;BME280;35177;45.900;5.946;2023-07-13T06:08:48;97872.50;;;18.63;80.45
49311;BME280;35177;45.900;5.946;2023-07-13T06:11:24;97879.00;;;18.60;79.43
49311;BME280;35177;45.900;5.946;2023-07-13T06:13:51;97885.06;;;18.62;79.05
49311;BME280;35177;45.900;5.946;2023-07-13T06:16:17;97879.50;;;18.73;80.22
49311;BME280;35177;45.900;5.946;2023-07-13T06:18:42;97880.09;;;18.67;80.46
49311;BME280;35177;45.900;5.946;2023-07-13T06:21:10;97870.50;;;18.65;79.46
49311;BME280;35177;45.900;5.946;2023-07-13T06:23:37;97868.50;;;18.77;81.41
49311;BME280;35177;45.900;5.946;2023-07-13T06:26:03;97876.66;;;18.85;79.98
49311;BME280;35177;45.900;5.946;2023-07-13T06:28:29;97874.13;;;18.83;79.70
49311;BME280;35177;45.900;5.946;2023-07-13T06:30:55;97874.66;;;18.87;79.62
49311;BME280;35177;45.900;5.946;2023-07-13T06:33:20;97876.09;;;18.91;79.19
49311;BME280;35177;45.900;5.946;2023-07-13T06:35:46;97880.56;;;19.00;79.71
49311;BME280;35177;45.900;5.946;2023-07-13T06:38:11;97880.66;;;19.08;77.63
49311;BME280;35177;45.900;5.946;2023-07-13T06:40:37;97883.34;;;19.08;76.95
49311;BME280;35177;45.900;5.946;2023-07-13T06:43:02;97893.41;;;19.33;76.72
49311;BME280;35177;45.900;5.946;2023-07-13T06:45:28;97891.84;;;19.40;76.52
49311;BME280;35177;45.900;5.946;2023-07-13T06:47:53;97886.59;;;19.48;77.67
49311;BME280;35177;45.900;5.946;2023-07-13T06:50:19;97885.06;;;19.46;76.96
49311;BME280;35177;45.900;5.946;2023-07-13T06:52:44;97881.84;;;19.42;78.72
49311;BME280;35177;45.900;5.946;2023-07-13T06:55:10;97886.56;;;19.58;77.43
49311;BME280;35177;45.900;5.946;2023-07-13T06:57:35;97884.31;;;19.53;78.88
49311;BME280;35177;45.900;5.946;2023-07-13T07:00:01;97890.72;;;19.33;78.01
49311;BME280;35177;45.900;5.946;2023-07-13T07:02:26;97888.09;;;19.23;76.89
49311;BME280;35177;45.900;5.946;2023-07-13T07:04:52;97887.97;;;19.52;76.11
49311;BME280;35177;45.900;5.946;2023-07-13T07:07:19;97898.53;;;19.36;76.88
49311;BME280;35177;45.900;5.946;2023-07-13T07:09:44;97891.81;;;19.50;78.27
49311;BME280;35177;45.900;5.946;2023-07-13T07:12:10;97888.59;;;19.46;77.79
49311;BME280;35177;45.900;5.946;2023-07-13T07:14:35;97884.84;;;19.57;77.81
49311;BME280;35177;45.900;5.946;2023-07-13T07:17:01;97889.81;;;19.79;77.06
49311;BME280;35177;45.900;5.946;2023-07-13T07:19:30;97886.59;;;19.93;76.71
49311;BME280;35177;45.900;5.946;2023-07-13T07:21:55;97883.59;;;19.78;78.33
49311;BME280;35177;45.900;5.946;2023-07-13T07:24:21;97873.53;;;19.98;76.99
49311;BME280;35177;45.900;5.946;2023-07-13T07:26:46;97876.38;;;19.96;75.21
49311;BME280;35177;45.900;5.946;2023-07-13T07:29:12;97885.13;;;19.98;75.40
49311;BME280;35177;45.900;5.946;2023-07-13T07:31:37;97891.81;;;20.12;76.35
49311;BME280;35177;45.900;5.946;2023-07-13T07:34:03;97892.50;;;19.96;75.50
49311;BME280;35177;45.900;5.946;2023-07-13T07:36:28;97893.00;;;20.27;76.16
49311;BME280;35177;45.900;5.946;2023-07-13T07:38:54;97897.53;;;20.27;76.29
49311;BME280;35177;45.900;5.946;2023-07-13T07:41:19;97905.91;;;20.24;75.44
49311;BME280;35177;45.900;5.946;2023-07-13T07:43:45;97902.66;;;20.38;74.92
49311;BME280;35177;45.900;5.946;2023-07-13T07:46:10;97902.44;;;20.49;73.20
49311;BME280;35177;45.900;5.946;2023-07-13T07:48:35;97897.88;;;20.49;74.76
49311;BME280;35177;45.900;5.946;2023-07-13T07:51:01;97899.78;;;21.00;72.81
49311;BME280;35177;45.900;5.946;2023-07-13T07:53:26;97911.38;;;21.18;73.46
49311;BME280;35177;45.900;5.946;2023-07-13T07:55:52;97914.16;;;21.09;73.36
49311;BME280;35177;45.900;5.946;2023-07-13T07:58:17;97909.19;;;20.53;72.57
49311;BME280;35177;45.900;5.946;2023-07-13T08:00:43;97907.31;;;20.28;76.70
49311;BME280;35177;45.900;5.946;2023-07-13T08:03:09;97902.59;;;20.30;75.28
49311;BME280;35177;45.900;5.946;2023-07-13T08:05:35;97911.38;;;20.75;75.24
49311;BME280;35177;45.900;5.946;2023-07-13T08:08:01;97906.25;;;21.07;73.07
49311;BME280;35177;45.900;5.946;2023-07-13T08:10:27;97906.13;;;21.17;72.62
49311;BME280;35177;45.900;5.946;2023-07-13T08:12:52;97903.47;;;20.99;69.12
49311;BME280;35177;45.900;5.946;2023-07-13T08:15:18;97903.31;;;21.18;68.99
49311;BME280;35177;45.900;5.946;2023-07-13T08:17:47;97907.47;;;21.13;68.59
49311;BME280;35177;45.900;5.946;2023-07-13T08:20:13;97907.19;;;21.24;67.41
49311;BME280;35177;45.900;5.946;2023-07-13T08:22:38;97906.06;;;21.34;68.36
49311;BME280;35177;45.900;5.946;2023-07-13T08:25:04;97912.53;;;21.50;71.59
49311;BME280;35177;45.900;5.946;2023-07-13T08:27:30;97906.81;;;21.53;68.64
49311;BME280;35177;45.900;5.946;2023-07-13T08:29:55;97903.59;;;21.49;68.29
49311;BME280;35177;45.900;5.946;2023-07-13T08:32:22;97900.09;;;21.49;67.97
49311;BME280;35177;45.900;5.946;2023-07-13T08:34:48;97901.31;;;21.62;67.16
49311;BME280;35177;45.900;5.946;2023-07-13T08:37:14;97901.63;;;21.59;68.15
49311;BME280;35177;45.900;5.946;2023-07-13T08:39:39;97903.47;;;21.51;65.78
49311;BME280;35177;45.900;5.946;2023-07-13T08:44:40;97902.28;;;21.53;66.97
49311;BME280;35177;45.900;5.946;2023-07-13T08:47:11;97896.44;;;21.66;66.42
49311;BME280;35177;45.900;5.946;2023-07-13T08:49:39;97899.81;;;21.68;66.21
49311;BME280;35177;45.900;5.946;2023-07-13T08:52:16;97905.97;;;21.52;64.24
49311;BME280;35177;45.900;5.946;2023-07-13T08:54:49;97901.31;;;21.62;65.24
49311;BME280;35177;45.900;5.946;2023-07-13T08:57:20;97898.13;;;21.67;66.38
49311;BME280;35177;45.900;5.946;2023-07-13T08:59:47;97902.53;;;21.76;64.37
49311;BME280;35177;45.900;5.946;2023-07-13T09:05:10;97901.75;;;21.91;64.99
49311;BME280;35177;45.900;5.946;2023-07-13T09:10:31;97904.63;;;21.90;59.37
49311;BME280;35177;45.900;5.946;2023-07-13T09:15:32;97899.91;;;21.50;61.14
49311;BME280;35177;45.900;5.946;2023-07-13T09:18:13;97898.63;;;21.28;61.62
49311;BME280;35177;45.900;5.946;2023-07-13T09:20:43;97910.44;;;21.35;60.94
49311;BME280;35177;45.900;5.946;2023-07-13T09:23:14;97912.16;;;21.44;58.46
49311;BME280;35177;45.900;5.946;2023-07-13T09:25:41;97912.94;;;21.63;57.59
49311;BME280;35177;45.900;5.946;2023-07-13T09:31:01;97921.31;;;21.93;59.32
49311;BME280;35177;45.900;5.946;2023-07-13T09:33:28;97920.19;;;22.20;57.94
49311;BME280;35177;45.900;5.946;2023-07-13T09:35:57;97915.31;;;22.16;57.20
49311;BME280;35177;45.900;5.946;2023-07-13T09:38:25;97916.97;;;22.08;58.84
49311;BME280;35177;45.900;5.946;2023-07-13T09:44:00;97920.63;;;21.91;62.23
49311;BME280;35177;45.900;5.946;2023-07-13T09:46:26;97929.63;;;22.16;58.87
49311;BME280;35177;45.900;5.946;2023-07-13T09:48:51;97927.09;;;22.14;58.04
49311;BME280;35177;45.900;5.946;2023-07-13T09:51:18;97934.56;;;21.79;58.47
49311;BME280;35177;45.900;5.946;2023-07-13T09:53:43;97936.69;;;22.09;59.68
49311;BME280;35177;45.900;5.946;2023-07-13T09:56:24;97939.78;;;22.54;56.72
49311;BME280;35177;45.900;5.946;2023-07-13T09:58:49;97946.41;;;22.68;55.32
49311;BME280;35177;45.900;5.946;2023-07-13T10:01:15;97931.34;;;22.49;55.07
49311;BME280;35177;45.900;5.946;2023-07-13T10:03:53;97949.53;;;22.23;55.13
49311;BME280;35177;45.900;5.946;2023-07-13T10:06:20;97946.09;;;22.05;56.16
49311;BME280;35177;45.900;5.946;2023-07-13T10:08:48;97944.78;;;22.17;56.01
49311;BME280;35177;45.900;5.946;2023-07-13T10:11:20;97953.56;;;22.27;58.26
49311;BME280;35177;45.900;5.946;2023-07-13T10:16:15;97942.13;;;22.33;54.99
49311;BME280;35177;45.900;5.946;2023-07-13T10:18:48;97953.13;;;22.96;52.97
49311;BME280;35177;45.900;5.946;2023-07-13T10:21:16;97950.25;;;23.22;53.19
49311;BME280;35177;45.900;5.946;2023-07-13T10:23:42;97949.38;;;23.29;51.22
49311;BME280;35177;45.900;5.946;2023-07-13T10:26:16;97957.91;;;23.73;50.58
49311;BME280;35177;45.900;5.946;2023-07-13T10:28:45;97959.56;;;23.82;50.35
49311;BME280;35177;45.900;5.946;2023-07-13T10:31:15;97950.03;;;23.94;50.44
49311;BME280;35177;45.900;5.946;2023-07-13T10:33:42;97955.06;;;24.36;49.74
49311;BME280;35177;45.900;5.946;2023-07-13T10:36:36;97946.84;;;24.75;47.77
49311;BME280;35177;45.900;5.946;2023-07-13T10:39:04;97946.53;;;24.78;48.56
49311;BME280;35177;45.900;5.946;2023-07-13T10:41:35;97953.94;;;24.53;48.58
49311;BME280;35177;45.900;5.946;2023-07-13T10:44:04;97955.44;;;24.56;47.02
49311;BME280;35177;45.900;5.946;2023-07-13T10:46:32;97951.94;;;25.15;46.53
49311;BME280;35177;45.900;5.946;2023-07-13T10:49:05;97949.75;;;24.73;46.78
49311;BME280;35177;45.900;5.946;2023-07-13T10:51:32;97953.00;;;24.69;49.29
49311;BME280;35177;45.900;5.946;2023-07-13T10:54:19;97947.31;;;25.68;46.43
49311;BME280;35177;45.900;5.946;2023-07-13T10:57:34;97951.25;;;25.80;45.57
49311;BME280;35177;45.900;5.946;2023-07-13T10:59:35;97945.47;;;25.83;46.08
49311;BME280;35177;45.900;5.946;2023-07-13T11:04:43;97942.56;;;25.84;44.24
49311;BME280;35177;45.900;5.946;2023-07-13T11:07:19;97939.53;;;26.08;44.31
49311;BME280;35177;45.900;5.946;2023-07-13T11:09:49;97939.63;;;26.51;43.77
49311;BME280;35177;45.900;5.946;2023-07-13T11:17:48;97934.44;;;26.35;39.93
49311;BME280;35177;45.900;5.946;2023-07-13T11:22:44;97931.81;;;26.62;39.11
49311;BME280;35177;45.900;5.946;2023-07-13T11:25:32;97924.16;;;25.80;42.45
49311;BME280;35177;45.900;5.946;2023-07-13T11:28:12;97912.28;;;26.31;42.41
49311;BME280;35177;45.900;5.946;2023-07-13T11:30:43;97908.25;;;25.77;43.58
49311;BME280;35177;45.900;5.946;2023-07-13T11:35:45;97897.78;;;24.78;41.65
49311;BME280;35177;45.900;5.946;2023-07-13T11:38:21;97897.34;;;24.66;43.32
49311;BME280;35177;45.900;5.946;2023-07-13T11:40:49;97890.34;;;24.72;43.08
49311;BME280;35177;45.900;5.946;2023-07-13T11:43:16;97886.19;;;25.80;41.63
49311;BME280;35177;45.900;5.946;2023-07-13T11:45:43;97886.59;;;26.48;40.35
49311;BME280;35177;45.900;5.946;2023-07-13T11:48:22;97885.59;;;26.35;38.32
49311;BME280;35177;45.900;5.946;2023-07-13T11:51:02;97882.25;;;26.75;40.30
49311;BME280;35177;45.900;5.946;2023-07-13T11:53:30;97879.41;;;26.62;37.13
49311;BME280;35177;45.900;5.946;2023-07-13T11:55:57;97882.13;;;26.83;39.04
49311;BME280;35177;45.900;5.946;2023-07-13T11:58:24;97873.47;;;27.28;38.26
49311;BME280;35177;45.900;5.946;2023-07-13T12:00:51;97869.38;;;27.39;36.37
49311;BME280;35177;45.900;5.946;2023-07-13T12:03:22;97860.03;;;27.20;35.66
49311;BME280;35177;45.900;5.946;2023-07-13T12:06:03;97853.66;;;27.07;36.52
49311;BME280;35177;45.900;5.946;2023-07-13T12:08:31;97858.66;;;26.75;36.12
49311;BME280;35177;45.900;5.946;2023-07-13T12:11:06;97859.47;;;27.66;39.09
49311;BME280;35177;45.900;5.946;2023-07-13T12:13:37;97851.56;;;27.36;34.04
49311;BME280;35177;45.900;5.946;2023-07-13T12:18:53;97854.09;;;27.79;34.23
49311;BME280;35177;45.900;5.946;2023-07-13T12:21:19;97870.31;;;27.59;32.83
49311;BME280;35177;45.900;5.946;2023-07-13T12:23:49;97866.22;;;27.76;33.54
49311;BME280;35177;45.900;5.946;2023-07-13T12:26:15;97869.09;;;27.62;34.42
49311;BME280;35177;45.900;5.946;2023-07-13T12:28:52;97864.63;;;27.47;34.25
49311;BME280;35177;45.900;5.946;2023-07-13T12:31:33;97864.66;;;27.54;35.98
49311;BME280;35177;45.900;5.946;2023-07-13T12:34:08;97870.97;;;27.61;34.34
49311;BME280;35177;45.900;5.946;2023-07-13T12:36:41;97855.47;;;27.55;34.19
49311;BME280;35177;45.900;5.946;2023-07-13T12:39:21;97852.56;;;27.63;34.46
49311;BME280;35177;45.900;5.946;2023-07-13T12:41:50;97855.06;;;28.05;34.54
49311;BME280;35177;45.900;5.946;2023-07-13T12:44:18;97844.41;;;27.63;32.85
49311;BME280;35177;45.900;5.946;2023-07-13T12:46:57;97851.00;;;27.41;33.55
49311;BME280;35177;45.900;5.946;2023-07-13T12:49:26;97844.41;;;27.70;36.37
49311;BME280;35177;45.900;5.946;2023-07-13T12:51:58;97834.69;;;27.41;35.96
49311;BME280;35177;45.900;5.946;2023-07-13T12:54:25;97834.59;;;28.23;35.76
49311;BME280;35177;45.900;5.946;2023-07-13T12:56:53;97828.31;;;28.22;34.66
49311;BME280;35177;45.900;5.946;2023-07-13T12:59:20;97838.16;;;28.30;31.23
49311;BME280;35177;45.900;5.946;2023-07-13T13:01:48;97840.91;;;28.30;34.72
49311;BME280;35177;45.900;5.946;2023-07-13T13:04:15;97841.69;;;28.23;34.54
49311;BME280;35177;45.900;5.946;2023-07-13T13:06:40;97830.63;;;28.32;33.68
49311;BME280;35177;45.900;5.946;2023-07-13T13:09:16;97822.25;;;28.46;35.18
49311;BME280;35177;45.900;5.946;2023-07-13T13:11:43;97826.34;;;27.96;34.18
49311;BME280;35177;45.900;5.946;2023-07-13T13:14:09;97822.19;;;28.00;34.88
49311;BME280;35177;45.900;5.946;2023-07-13T13:16:37;97832.56;;;27.90;34.96
49311;BME280;35177;45.900;5.946;2023-07-13T13:19:13;97829.84;;;27.90;33.38
49311;BME280;35177;45.900;5.946;2023-07-13T13:21:39;97820.53;;;28.12;36.17
49311;BME280;35177;45.900;5.946;2023-07-13T13:24:13;97819.81;;;27.97;35.86
49311;BME280;35177;45.900;5.946;2023-07-13T13:26:40;97827.47;;;28.35;33.45
49311;BME280;35177;45.900;5.946;2023-07-13T13:29:21;97822.53;;;27.97;33.18
49311;BME280;35177;45.900;5.946;2023-07-13T13:31:49;97821.78;;;28.16;35.45
49311;BME280;35177;45.900;5.946;2023-07-13T13:34:16;97813.47;;;28.31;36.07
49311;BME280;35177;45.900;5.946;2023-07-13T13:36:43;97810.50;;;28.26;35.25